In Rescue
 
Open Full Screen Window  High Contrast Mode
Wind Gusting 00 knots
06
July 19, 2021 1:58 AM CDT
Weather Information
Wind Direction
  220 °
Wind Speed
  06 kt (7 mph)
Wind Gust
  00 kt (0 mph)
Altimeter
30.08 in
Visibility
7 SM
Temperature
23° C
73° F
Dewpoint
17° C
63° F
Humidity
69%
1hr Rain Fall
00.00 in.
24hr Rain Fall
00.00 in.
Sky Condition
Clear
VFR

METAR KFGN 190658Z AUTO 22006KT 7SM CLR 23/17 A3008 RMK AO2

FAA Disclaimer: The data displayed is for advisory purposes only and is not to be used for flight planning or operations.